createdAt,value
2022-08-16T00:02:52.699Z,25.71
2022-08-16T00:07:57.110Z,27.31
2022-08-16T00:13:02.022Z,27.02
2022-08-16T00:18:05.713Z,24.88
2022-08-16T00:23:14.257Z,25.34
2022-08-16T00:28:18.891Z,27.04
2022-08-16T00:33:21.901Z,26.90
2022-08-16T00:38:40.960Z,24.99
2022-08-16T00:43:47.209Z,25.96
2022-08-16T00:48:51.605Z,27.30
2022-08-16T00:53:55.940Z,25.75
2022-08-16T00:59:01.378Z,25.97
2022-08-16T01:04:29.513Z,26.62
2022-08-16T01:09:37.357Z,24.63
2022-08-16T01:14:50.300Z,26.18
2022-08-16T01:20:00.778Z,26.40
2022-08-16T01:25:36.238Z,24.59
2022-08-16T01:30:50.348Z,26.23
2022-08-16T01:36:09.410Z,26.46
2022-08-16T01:41:21.116Z,24.49
2022-08-16T01:46:29.990Z,25.80
2022-08-16T01:51:45.106Z,26.37
2022-08-16T01:56:48.211Z,24.69
2022-08-16T02:02:00.217Z,26.24
2022-08-16T02:07:08.769Z,25.96
2022-08-16T02:12:50.043Z,24.88
2022-08-16T02:17:39.358Z,26.53
2022-08-16T02:22:43.591Z,25.31
2022-08-16T02:27:51.139Z,24.72
2022-08-16T02:32:55.509Z,26.61
2022-08-16T02:38:01.767Z,25.35
2022-08-16T02:43:13.150Z,24.94
2022-08-16T02:48:30.014Z,26.46
2022-08-16T02:53:34.910Z,24.69
2022-08-16T02:58:39.116Z,25.95
2022-08-16T03:04:39.828Z,25.47
2022-08-16T03:09:05.658Z,24.50
2022-08-16T03:14:09.093Z,26.00
2022-08-16T03:19:15.649Z,24.41
2022-08-16T03:24:28.148Z,25.90
2022-08-16T03:29:33.984Z,24.55
2022-08-16T03:34:37.160Z,23.91
2022-08-16T03:39:42.998Z,25.61
2022-08-16T03:44:49.242Z,25.77
2022-08-16T03:49:54.063Z,23.82
2022-08-16T03:54:59.489Z,24.39
2022-08-16T04:00:20.703Z,26.08
2022-08-16T04:05:44.257Z,24.18
2022-08-16T04:10:51.821Z,25.65
2022-08-16T04:15:55.790Z,25.53
2022-08-16T04:20:59.103Z,24.20
2022-08-16T04:26:02.723Z,26.20
2022-08-16T04:31:07.246Z,26.32
2022-08-16T04:36:20.065Z,24.22
2022-08-16T04:41:32.638Z,24.35
2022-08-16T04:47:02.226Z,26.51
2022-08-16T04:52:05.369Z,24.95
2022-08-16T04:57:30.004Z,24.76
2022-08-16T05:02:42.044Z,26.34
2022-08-16T05:07:58.346Z,24.64
2022-08-16T05:13:05.362Z,25.26
2022-08-16T05:18:15.828Z,25.93
2022-08-16T05:23:19.731Z,24.44
2022-08-16T05:28:30.968Z,25.99
2022-08-16T05:33:42.160Z,25.62
2022-08-16T05:38:45.267Z,24.98
2022-08-16T05:43:49.471Z,26.59
2022-08-16T05:48:55.182Z,25.38
2022-08-16T05:53:59.590Z,25.09
2022-08-16T05:59:06.394Z,26.78
2022-08-16T06:04:13.008Z,25.31
2022-08-16T06:09:18.109Z,25.39
2022-08-16T06:14:21.336Z,27.02
2022-08-16T06:19:24.550Z,25.90
2022-08-16T06:24:53.345Z,25.64
2022-08-16T06:29:50.838Z,26.85
2022-08-16T06:34:56.872Z,25.25
2022-08-16T06:40:00.988Z,26.83
2022-08-16T06:45:07.059Z,26.58
2022-08-16T06:50:11.505Z,26.34
2022-08-16T06:55:34.534Z,27.65
2022-08-16T07:00:38.676Z,26.17
2022-08-16T07:05:46.392Z,26.73
2022-08-16T07:10:51.371Z,27.72
2022-08-16T07:15:54.587Z,26.21
2022-08-16T07:21:02.023Z,27.39
2022-08-16T07:26:10.311Z,28.05
2022-08-16T07:31:13.712Z,27.90
2022-08-16T07:36:22.199Z,28.38
2022-08-16T07:41:25.465Z,29.60
2022-08-16T07:46:37.907Z,30.77
2022-08-16T07:51:42.946Z,30.79
2022-08-16T07:56:46.068Z,31.05
2022-08-16T08:01:49.157Z,30.55
2022-08-16T08:06:56.261Z,30.02
2022-08-16T08:11:59.764Z,29.54
2022-08-16T08:17:08.605Z,29.38
2022-08-16T08:22:19.159Z,29.61
2022-08-16T08:27:23.508Z,29.95
2022-08-16T08:32:51.076Z,30.14
2022-08-16T08:37:55.799Z,30.29
2022-08-16T08:43:11.408Z,30.65
2022-08-16T08:48:33.431Z,30.90
2022-08-16T08:53:38.193Z,31.42
2022-08-16T08:58:53.916Z,31.98
2022-08-16T09:03:58.261Z,32.28
2022-08-16T09:09:02.145Z,32.29
2022-08-16T09:14:05.560Z,32.23
2022-08-16T09:24:46.682Z,31.92
2022-08-16T09:29:44.885Z,31.60
2022-08-16T09:34:48.922Z,31.53
2022-08-16T09:39:52.508Z,31.72
2022-08-16T09:45:09.168Z,32.12
2022-08-16T09:50:22.669Z,32.47
2022-08-16T09:55:26.446Z,32.74
2022-08-16T10:00:44.226Z,32.94
2022-08-16T10:05:49.149Z,33.17
2022-08-16T10:11:30.969Z,33.32
2022-08-16T10:16:57.486Z,33.51
2022-08-16T10:22:04.996Z,33.22
2022-08-16T10:27:26.060Z,32.80
2022-08-16T10:32:32.103Z,32.42
2022-08-16T10:37:36.516Z,32.04
2022-08-16T10:42:40.946Z,32.02
2022-08-16T10:47:44.619Z,32.12
2022-08-16T10:52:49.890Z,32.07
2022-08-16T10:57:56.808Z,32.23
2022-08-16T11:03:06.508Z,32.77
2022-08-16T11:08:35.724Z,33.36
2022-08-16T11:19:12.463Z,33.80
2022-08-16T11:24:42.572Z,33.65
2022-08-16T11:29:40.138Z,33.65
2022-08-16T11:35:05.968Z,33.63
2022-08-16T11:40:09.311Z,33.79
2022-08-16T11:45:13.147Z,33.73
2022-08-16T11:50:17.790Z,33.45
2022-08-16T11:55:20.978Z,33.48
2022-08-16T12:00:50.441Z,33.49
2022-08-16T12:05:52.024Z,33.33
2022-08-16T12:10:59.352Z,33.13
2022-08-16T12:16:09.082Z,33.02
2022-08-16T12:21:14.343Z,32.85
2022-08-16T12:26:17.620Z,32.76
2022-08-16T12:31:22.310Z,32.84
2022-08-16T12:36:26.460Z,32.94
2022-08-16T12:41:34.750Z,32.84
2022-08-16T12:46:38.044Z,32.81
2022-08-16T12:51:59.278Z,32.79
2022-08-16T12:57:03.665Z,32.72
2022-08-16T13:02:06.848Z,32.75
2022-08-16T13:07:16.491Z,32.77
2022-08-16T13:12:24.899Z,32.68
2022-08-16T13:17:29.695Z,32.68
2022-08-16T13:22:33.806Z,32.78
2022-08-16T13:28:02.669Z,32.68
2022-08-16T13:33:00.579Z,32.35
2022-08-16T13:38:03.611Z,32.08
2022-08-16T13:43:11.302Z,31.99
2022-08-16T13:48:21.859Z,31.83
2022-08-16T13:53:28.737Z,31.85
2022-08-16T13:58:37.190Z,31.83
2022-08-16T14:03:55.853Z,31.79
2022-08-16T14:09:06.438Z,31.94
2022-08-16T14:14:11.210Z,32.01
2022-08-16T14:19:19.043Z,32.06
2022-08-16T14:24:30.070Z,31.95
2022-08-16T14:29:34.999Z,31.71
2022-08-16T14:34:42.388Z,31.42
2022-08-16T14:39:45.490Z,31.13
2022-08-16T14:44:49.737Z,30.97
2022-08-16T14:49:54.009Z,30.88
2022-08-16T14:54:57.529Z,30.78
2022-08-16T15:00:06.010Z,30.74
2022-08-16T15:05:11.635Z,30.72
2022-08-16T15:10:23.851Z,30.75
2022-08-16T15:15:30.956Z,30.74
2022-08-16T15:20:35.695Z,30.47
2022-08-16T15:25:44.342Z,30.19
2022-08-16T15:30:59.831Z,29.96
2022-08-16T15:36:04.963Z,29.88
2022-08-16T15:41:08.458Z,29.90
2022-08-16T15:46:35.646Z,29.88
2022-08-16T15:51:46.986Z,29.88
2022-08-16T15:56:51.737Z,29.85
2022-08-16T16:01:57.307Z,29.75
2022-08-16T16:07:02.588Z,29.65
2022-08-16T16:12:41.480Z,29.60
2022-08-16T16:17:31.509Z,29.50
2022-08-16T16:22:34.470Z,29.32
2022-08-16T16:27:37.625Z,29.11
2022-08-16T16:32:40.634Z,28.91
2022-08-16T16:37:43.957Z,28.72
2022-08-16T16:42:51.268Z,28.56
2022-08-16T16:47:54.404Z,28.38
2022-08-16T16:53:00.141Z,28.20
2022-08-16T16:58:35.264Z,28.03
2022-08-16T17:03:39.834Z,27.84
2022-08-16T17:08:43.219Z,27.68
2022-08-16T17:13:46.768Z,27.49
2022-08-16T17:19:16.745Z,27.32
2022-08-16T17:24:17.911Z,27.13
2022-08-16T17:29:22.416Z,26.98
2022-08-16T17:34:34.585Z,26.80
2022-08-16T17:40:00.352Z,26.61
2022-08-16T17:45:10.274Z,26.44
2022-08-16T17:50:13.462Z,26.23
2022-08-16T17:55:25.346Z,25.96
2022-08-16T18:00:29.164Z,25.75
2022-08-16T18:05:34.154Z,25.58
2022-08-16T18:10:37.255Z,25.46
2022-08-16T18:15:42.333Z,25.36
2022-08-16T18:21:04.057Z,25.26
2022-08-16T18:26:08.181Z,25.18
2022-08-16T18:31:11.198Z,25.07
2022-08-16T18:36:20.473Z,24.94
2022-08-16T18:41:27.064Z,24.77
2022-08-16T18:46:30.149Z,24.62
2022-08-16T18:51:34.033Z,24.46
2022-08-16T18:56:55.775Z,24.35
2022-08-16T19:02:04.909Z,24.16
2022-08-16T19:07:08.394Z,24.06
2022-08-16T19:12:11.767Z,24.04
2022-08-16T19:17:20.805Z,25.19
2022-08-16T19:22:45.238Z,26.97
2022-08-16T19:27:54.432Z,25.70
2022-08-16T19:32:57.640Z,25.05
2022-08-16T19:38:00.944Z,24.70
2022-08-16T19:43:04.051Z,24.46
2022-08-16T19:48:10.131Z,24.27
2022-08-16T19:53:18.914Z,24.10
2022-08-16T19:58:23.309Z,23.98
2022-08-16T20:03:27.298Z,23.87
2022-08-16T20:08:30.787Z,25.02
2022-08-16T20:13:37.141Z,26.99
2022-08-16T20:18:41.073Z,25.70
2022-08-16T20:23:44.091Z,24.96
2022-08-16T20:28:54.130Z,24.54
2022-08-16T20:33:57.972Z,24.20
2022-08-16T20:39:05.179Z,24.28
2022-08-16T20:44:10.642Z,26.98
2022-08-16T20:49:13.663Z,27.40
2022-08-16T20:54:16.763Z,25.91
2022-08-16T20:59:19.868Z,25.07
2022-08-16T21:04:25.775Z,24.51
2022-08-16T21:09:33.698Z,26.12
2022-08-16T21:14:37.181Z,27.48
2022-08-16T21:19:40.492Z,25.94
2022-08-16T21:24:46.424Z,24.81
2022-08-16T21:29:49.688Z,25.24
2022-08-16T21:34:53.197Z,26.91
2022-08-16T21:39:56.154Z,25.37
2022-08-16T21:44:59.213Z,25.50
2022-08-16T21:50:02.219Z,26.95
2022-08-16T21:55:07.351Z,25.43
2022-08-16T22:00:16.225Z,24.51
2022-08-16T22:05:19.344Z,25.21
2022-08-16T22:11:06.549Z,26.92
2022-08-16T22:15:48.003Z,25.31
2022-08-16T22:20:51.495Z,24.37
2022-08-16T22:25:56.269Z,25.09
2022-08-16T22:31:00.628Z,26.84
2022-08-16T22:36:05.409Z,25.30
2022-08-16T22:41:08.432Z,24.61
2022-08-16T22:46:11.537Z,26.94
2022-08-16T22:51:14.548Z,26.47
2022-08-16T22:56:18.389Z,24.73
2022-08-16T23:01:24.505Z,24.96
2022-08-16T23:06:27.508Z,26.41
2022-08-16T23:11:30.469Z,24.77
2022-08-16T23:16:35.040Z,24.92
2022-08-16T23:21:41.635Z,27.14
2022-08-16T23:26:48.704Z,26.16
2022-08-16T23:31:56.522Z,24.48
2022-08-16T23:36:59.729Z,24.87
2022-08-16T23:42:11.427Z,26.37
2022-08-16T23:47:14.342Z,24.66
2022-08-16T23:52:17.363Z,24.85
2022-08-16T23:57:20.357Z,26.30
